Time;durP1;ratioP1;P1;durP2;ratioP2;P2;SDS_P1;SDS_P2;PMS_P1;PMS_P2;Temp;Humidity;BMP_temperature;BMP_pressure;BME280_temperature;BME280_humidity;BME280_pressure;Samples;Min_cycle;Max_cycle;Signal;HPM_P1;HPM_P2
2022/11/14 00:03:26;;;;;;;;;;;5.00;99.90;;;;;;12563837;28;19935;-39
2022/11/14 00:09:28;;;;;;;;;;;4.80;99.90;;;;;;12565300;28;19928;-38
2022/11/14 00:15:29;;;;;;;;;;;4.80;99.90;;;;;;12551657;28;19932;-39
2022/11/14 00:21:31;;;;;;;;;;;4.70;99.90;;;;;;12568383;28;19924;-39
2022/11/14 00:27:33;;;;;;;;;;;4.60;99.90;;;;;;12562576;28;20303;-39
2022/11/14 00:33:36;;;;;;;;;;;4.70;99.90;;;;;;12566826;28;19955;-39
2022/11/14 00:39:38;;;;;;;;;;;4.80;99.90;;;;;;12617184;28;19928;-39
2022/11/14 00:45:41;;;;;;;;;;;4.80;99.90;;;;;;12602963;28;19932;-38
2022/11/14 00:51:43;;;;;;;;;;;4.90;99.90;;;;;;12613777;28;19925;-39
2022/11/14 00:57:45;;;;;;;;;;;4.90;99.90;;;;;;12603507;28;19925;-38
2022/11/14 01:03:48;;;;;;;;;;;4.90;99.90;;;;;;12617627;28;20341;-39
2022/11/14 01:09:49;;;;;;;;;;;4.80;99.90;;;;;;12581689;28;19932;-39
2022/11/14 01:15:52;;;;;;;;;;;4.80;99.90;;;;;;12609421;28;19970;-39
2022/11/14 01:21:54;;;;;;;;;;;4.80;99.90;;;;;;12613552;28;19932;-39
2022/11/14 01:27:56;;;;;;;;;;;4.60;99.90;;;;;;12590198;28;19928;-39
2022/11/14 01:33:57;;;;;;;;;;;4.60;99.90;;;;;;12618054;28;19924;-38
2022/11/14 01:39:59;;;;;;;;;;;4.70;99.90;;;;;;12614513;28;19932;-38
2022/11/14 01:46:15;;;;;;;;;;;4.50;99.90;;;;;;12604875;28;19947;-39
2022/11/14 01:52:18;;;;;;;;;;;4.50;99.90;;;;;;12611699;28;19981;-39
2022/11/14 01:58:21;;;;;;;;;;;4.80;99.90;;;;;;12605424;28;20311;-38
2022/11/14 02:04:25;;;;;;;;;;;4.50;99.90;;;;;;12619438;28;19924;-38
2022/11/14 02:10:27;;;;;;;;;;;4.50;99.90;;;;;;12617223;28;19931;-39
2022/11/14 02:16:28;;;;;;;;;;;4.60;99.90;;;;;;12614587;28;20119;-39
2022/11/14 02:22:30;;;;;;;;;;;4.80;99.90;;;;;;12625507;28;19928;-39
2022/11/14 02:28:32;;;;;;;;;;;4.90;99.90;;;;;;12608377;28;19924;-39
2022/11/14 02:34:33;;;;;;;;;;;4.80;99.90;;;;;;12606252;28;19928;-39
2022/11/14 02:40:35;;;;;;;;;;;4.50;99.90;;;;;;12616407;28;19931;-39
2022/11/14 02:46:37;;;;;;;;;;;4.20;99.90;;;;;;12626270;28;19924;-38
2022/11/14 02:52:38;;;;;;;;;;;4.10;99.90;;;;;;12623575;28;19924;-39
2022/11/14 02:58:40;;;;;;;;;;;4.10;99.90;;;;;;12630928;28;19924;-39
2022/11/14 03:04:42;;;;;;;;;;;4.10;99.90;;;;;;12624640;28;19928;-39
2022/11/14 03:10:44;;;;;;;;;;;4.00;99.90;;;;;;12622102;28;19924;-39
2022/11/14 03:16:45;;;;;;;;;;;4.00;99.90;;;;;;12600713;28;20437;-39
2022/11/14 03:22:47;;;;;;;;;;;4.20;99.90;;;;;;12615738;28;19924;-39
2022/11/14 03:28:49;;;;;;;;;;;4.00;99.90;;;;;;12629667;28;19932;-39
2022/11/14 03:34:51;;;;;;;;;;;3.80;99.90;;;;;;12616569;28;20367;-39
2022/11/14 03:40:52;;;;;;;;;;;3.80;99.90;;;;;;12622266;28;19928;-40
2022/11/14 03:46:54;;;;;;;;;;;3.90;99.90;;;;;;12620061;28;19928;-38
2022/11/14 03:52:56;;;;;;;;;;;4.00;99.90;;;;;;12621467;28;19976;-38
2022/11/14 03:58:58;;;;;;;;;;;4.30;99.90;;;;;;12619346;28;19932;-39
2022/11/14 04:04:59;;;;;;;;;;;4.40;99.90;;;;;;12613373;28;19929;-39
2022/11/14 04:11:01;;;;;;;;;;;4.20;99.90;;;;;;12620511;28;19924;-39
2022/11/14 04:17:03;;;;;;;;;;;4.10;99.90;;;;;;12621048;28;19935;-39
2022/11/14 04:23:05;;;;;;;;;;;4.30;99.90;;;;;;12592144;28;19932;-38
2022/11/14 04:29:06;;;;;;;;;;;4.40;99.90;;;;;;12606925;28;19931;-39
2022/11/14 04:35:08;;;;;;;;;;;4.10;99.90;;;;;;12614086;28;19928;-38
2022/11/14 04:41:10;;;;;;;;;;;4.00;99.90;;;;;;12614757;28;20422;-38
2022/11/14 04:47:12;;;;;;;;;;;4.00;99.90;;;;;;12616074;28;19924;-39
2022/11/14 04:53:14;;;;;;;;;;;4.00;99.90;;;;;;12601746;28;19977;-38
2022/11/14 04:59:15;;;;;;;;;;;3.90;99.90;;;;;;12606729;28;20383;-38
2022/11/14 05:05:21;;;;;;;;;;;3.90;99.90;;;;;;12605987;28;19932;-38
2022/11/14 05:11:23;;;;;;;;;;;3.90;99.90;;;;;;12625126;28;19924;-39
2022/11/14 05:17:29;;;;;;;;;;;4.10;99.90;;;;;;12600767;28;19932;-38
2022/11/14 05:23:31;;;;;;;;;;;3.90;99.90;;;;;;12614859;28;19924;-38
2022/11/14 05:29:33;;;;;;;;;;;3.80;99.90;;;;;;12598934;28;19940;-39
2022/11/14 05:35:34;;;;;;;;;;;3.60;99.90;;;;;;12611264;28;20015;-39
2022/11/14 05:41:36;;;;;;;;;;;3.60;99.90;;;;;;12612764;28;19925;-39
2022/11/14 05:47:38;;;;;;;;;;;3.60;99.90;;;;;;12609508;28;19928;-38
2022/11/14 05:53:40;;;;;;;;;;;3.70;99.90;;;;;;12605394;28;19929;-39
2022/11/14 05:59:42;;;;;;;;;;;3.60;99.90;;;;;;12608539;28;19928;-38
2022/11/14 06:05:44;;;;;;;;;;;3.90;99.90;;;;;;12616256;28;20311;-39
2022/11/14 06:11:45;;;;;;;;;;;3.90;99.90;;;;;;12605987;28;19936;-39
2022/11/14 06:17:47;;;;;;;;;;;3.80;99.90;;;;;;12617265;28;19951;-39
2022/11/14 06:23:49;;;;;;;;;;;3.80;99.90;;;;;;12606756;28;20314;-38
2022/11/14 06:29:51;;;;;;;;;;;3.60;99.90;;;;;;12606480;28;19951;-38
2022/11/14 06:35:57;;;;;;;;;;;3.50;99.90;;;;;;12612494;28;19974;-38
2022/11/14 06:41:59;;;;;;;;;;;3.60;99.90;;;;;;12621581;28;19931;-39
2022/11/14 06:48:01;;;;;;;;;;;3.70;99.90;;;;;;12623589;28;19978;-39
2022/11/14 06:54:03;;;;;;;;;;;3.80;99.90;;;;;;12592943;28;19924;-39
2022/11/14 07:00:05;;;;;;;;;;;3.90;99.90;;;;;;12614961;28;19924;-38
2022/11/14 07:06:07;;;;;;;;;;;4.00;99.90;;;;;;12587235;28;19924;-39
2022/11/14 07:12:09;;;;;;;;;;;4.10;99.90;;;;;;12619652;28;20025;-38
2022/11/14 07:18:11;;;;;;;;;;;4.10;99.90;;;;;;12612026;28;19971;-39
2022/11/14 07:24:13;;;;;;;;;;;4.30;99.90;;;;;;12623395;28;20053;-38
2022/11/14 07:30:15;;;;;;;;;;;4.20;99.90;;;;;;12610905;28;19924;-39
2022/11/14 07:36:17;;;;;;;;;;;4.30;99.90;;;;;;12624370;28;20426;-39
2022/11/14 07:42:18;;;;;;;;;;;4.70;99.90;;;;;;12618509;28;19931;-39
2022/11/14 07:48:21;;;;;;;;;;;4.60;99.90;;;;;;12621338;28;19928;-39
2022/11/14 07:54:23;;;;;;;;;;;4.50;99.90;;;;;;12610068;28;20375;-38
2022/11/14 08:00:24;;;;;;;;;;;4.50;99.90;;;;;;12602691;28;19931;-39
2022/11/14 08:06:27;;;;;;;;;;;4.80;99.90;;;;;;12611333;28;19939;-38
2022/11/14 08:12:29;;;;;;;;;;;4.70;99.90;;;;;;12608126;28;19931;-39
2022/11/14 08:18:30;;;;;;;;;;;4.90;99.90;;;;;;12610963;28;19938;-39
2022/11/14 08:24:33;;;;;;;;;;;5.10;99.90;;;;;;12609471;28;20436;-39
2022/11/14 08:30:34;;;;;;;;;;;5.30;99.90;;;;;;12611027;28;19928;-39
2022/11/14 08:36:36;;;;;;;;;;;5.70;99.90;;;;;;12607075;28;19924;-39
2022/11/14 08:42:38;;;;;;;;;;;5.90;99.90;;;;;;12601870;28;19925;-39
2022/11/14 08:48:40;;;;;;;;;;;5.90;99.90;;;;;;12611187;28;21121;-39
2022/11/14 08:54:42;;;;;;;;;;;6.00;99.90;;;;;;12603827;28;19928;-39
2022/11/14 09:00:43;;;;;;;;;;;6.10;99.90;;;;;;12604589;28;19976;-39
2022/11/14 09:06:45;;;;;;;;;;;6.20;99.90;;;;;;12607221;28;19951;-39
2022/11/14 09:12:53;;;;;;;;;;;6.30;99.90;;;;;;12622246;28;19928;-39
2022/11/14 09:18:55;;;;;;;;;;;5.90;99.90;;;;;;12599985;28;19944;-39
2022/11/14 09:24:57;;;;;;;;;;;6.00;99.90;;;;;;12584710;28;19928;-39
2022/11/14 09:31:08;;;;;;;;;;;6.20;99.90;;;;;;12603208;28;19932;-39
2022/11/14 09:37:10;;;;;;;;;;;6.30;99.90;;;;;;12617814;28;19928;-39
2022/11/14 09:43:27;;;;;;;;;;;6.60;99.90;;;;;;12611295;28;20394;-39
2022/11/14 09:49:34;;;;;;;;;;;6.80;99.90;;;;;;12613380;28;19924;-39
2022/11/14 09:55:36;;;;;;;;;;;7.00;99.90;;;;;;12604762;28;19924;-39
2022/11/14 10:02:16;;;;;;;;;;;7.40;99.90;;;;;;12619935;28;19970;-39
2022/11/14 10:08:25;;;;;;;;;;;7.90;99.90;;;;;;12430359;28;19929;-40
2022/11/14 10:14:30;;;;;;;;;;;8.30;99.90;;;;;;12599227;28;19932;-39
2022/11/14 10:20:36;;;;;;;;;;;8.50;99.90;;;;;;12602844;28;19951;-39
2022/11/14 10:26:46;;;;;;;;;;;8.70;99.90;;;;;;12594857;28;20284;-39
2022/11/14 10:32:56;;;;;;;;;;;8.90;99.90;;;;;;12604832;28;20295;-39
2022/11/14 10:39:12;;;;;;;;;;;9.10;99.90;;;;;;12611735;28;20414;-40
2022/11/14 10:45:13;;;;;;;;;;;9.30;99.90;;;;;;12614611;28;20380;-39
2022/11/14 10:51:21;;;;;;;;;;;9.00;99.90;;;;;;12612191;28;19925;-39
2022/11/14 10:57:23;;;;;;;;;;;9.30;99.90;;;;;;12612545;28;19996;-39
2022/11/14 11:03:41;;;;;;;;;;;9.50;99.90;;;;;;12613215;28;19932;-39
2022/11/14 11:16:10;;;;;;;;;;;9.80;99.90;;;;;;12610677;28;19977;-40
2022/11/14 11:22:27;;;;;;;;;;;10.10;99.90;;;;;;12599942;28;19924;-39
2022/11/14 11:28:29;;;;;;;;;;;10.20;99.90;;;;;;12607997;28;19928;-39
2022/11/14 11:34:32;;;;;;;;;;;10.40;99.90;;;;;;12612512;28;19998;-40
2022/11/14 11:40:33;;;;;;;;;;;10.40;99.90;;;;;;12621272;28;19934;-39
2022/11/14 11:46:41;;;;;;;;;;;10.40;99.90;;;;;;12619760;28;19932;-39
2022/11/14 11:53:02;;;;;;;;;;;10.40;99.90;;;;;;12602805;28;20323;-39
2022/11/14 11:59:19;;;;;;;;;;;10.30;99.90;;;;;;12608952;28;19950;-39
2022/11/14 12:05:29;;;;;;;;;;;10.40;99.90;;;;;;12616474;28;20389;-39
2022/11/14 12:11:33;;;;;;;;;;;10.30;99.90;;;;;;12616525;28;20027;-39
2022/11/14 12:17:53;;;;;;;;;;;10.50;99.90;;;;;;12613129;28;19981;-39
2022/11/14 12:24:06;;;;;;;;;;;10.70;99.90;;;;;;12599691;28;19928;-39
2022/11/14 12:30:20;;;;;;;;;;;10.70;99.90;;;;;;12595018;28;19924;-39
2022/11/14 12:36:27;;;;;;;;;;;10.90;99.90;;;;;;12625528;28;19924;-39
2022/11/14 12:42:30;;;;;;;;;;;11.00;99.90;;;;;;12604468;28;19959;-39
2022/11/14 12:48:33;;;;;;;;;;;11.00;99.90;;;;;;12610440;28;19928;-40
2022/11/14 12:54:45;;;;;;;;;;;11.00;99.90;;;;;;12591160;28;19932;-39
2022/11/14 13:00:46;;;;;;;;;;;10.80;99.90;;;;;;12602217;28;19976;-40
2022/11/14 13:06:57;;;;;;;;;;;10.80;99.90;;;;;;12616874;28;19924;-39
2022/11/14 13:25:45;;;;;;;;;;;10.70;99.90;;;;;;12621781;28;19932;-39
2022/11/14 13:31:48;;;;;;;;;;;10.60;99.90;;;;;;12617648;28;19924;-39
2022/11/14 13:38:03;;;;;;;;;;;10.60;99.90;;;;;;12611796;28;19924;-39
2022/11/14 13:44:19;;;;;;;;;;;10.60;99.90;;;;;;12619727;28;20372;-40
2022/11/14 13:50:28;;;;;;;;;;;10.60;99.90;;;;;;12591956;28;19939;-39
2022/11/14 13:56:34;;;;;;;;;;;10.50;99.90;;;;;;12612445;28;19994;-40
2022/11/14 14:02:54;;;;;;;;;;;10.60;99.90;;;;;;12607568;28;19924;-39
2022/11/14 14:09:05;;;;;;;;;;;10.50;99.90;;;;;;12608111;28;20397;-40
2022/11/14 14:15:13;;;;;;;;;;;10.40;99.90;;;;;;12606395;28;20015;-39
2022/11/14 14:21:21;;;;;;;;;;;10.40;99.90;;;;;;12607204;28;19924;-39
2022/11/14 14:27:22;;;;;;;;;;;10.40;99.90;;;;;;12588707;28;19929;-39
2022/11/14 14:33:24;;;;;;;;;;;10.40;99.90;;;;;;12630225;28;19984;-40
2022/11/14 14:39:27;;;;;;;;;;;10.30;99.90;;;;;;12601525;28;19966;-40
2022/11/14 14:45:30;;;;;;;;;;;10.30;99.90;;;;;;12617524;28;19924;-40
2022/11/14 14:51:34;;;;;;;;;;;10.20;99.90;;;;;;12623575;28;19971;-39
2022/11/14 14:57:36;;;;;;;;;;;10.20;99.90;;;;;;12604000;28;20022;-39
2022/11/14 15:03:39;;;;;;;;;;;10.10;99.90;;;;;;12609568;28;20070;-40
2022/11/14 15:10:00;;;;;;;;;;;10.00;99.90;;;;;;12596451;28;19939;-39
2022/11/14 15:16:03;;;;;;;;;;;10.00;99.90;;;;;;12615176;28;20597;-39
2022/11/14 15:22:20;;;;;;;;;;;9.90;99.90;;;;;;12610109;28;20022;-39
2022/11/14 15:28:22;;;;;;;;;;;9.80;99.90;;;;;;12609809;28;19973;-40
2022/11/14 15:34:28;;;;;;;;;;;9.70;99.90;;;;;;12621392;28;20011;-39
2022/11/14 15:40:31;;;;;;;;;;;9.60;99.90;;;;;;12627576;28;19924;-39
2022/11/14 15:46:40;;;;;;;;;;;9.50;99.90;;;;;;12609912;28;19924;-40
2022/11/14 15:52:47;;;;;;;;;;;9.40;99.90;;;;;;12611784;28;19936;-39
2022/11/14 15:58:49;;;;;;;;;;;9.40;99.90;;;;;;12610934;28;20038;-39
2022/11/14 16:04:52;;;;;;;;;;;9.30;99.90;;;;;;12604188;28;19928;-39
2022/11/14 16:10:54;;;;;;;;;;;8.90;99.90;;;;;;12607890;28;19947;-39
2022/11/14 16:16:55;;;;;;;;;;;8.70;99.90;;;;;;12603646;28;19924;-40
2022/11/14 16:22:57;;;;;;;;;;;8.50;99.90;;;;;;12614791;28;19970;-39
2022/11/14 16:28:59;;;;;;;;;;;8.40;99.90;;;;;;12606490;28;20307;-39
2022/11/14 16:35:00;;;;;;;;;;;8.20;99.90;;;;;;12570904;28;20357;-39
2022/11/14 16:41:17;;;;;;;;;;;8.10;99.90;;;;;;12567714;28;19975;-40
2022/11/14 16:47:19;;;;;;;;;;;8.00;99.90;;;;;;12563647;28;19978;-39
2022/11/14 16:53:21;;;;;;;;;;;7.90;99.90;;;;;;12550114;28;19932;-39
2022/11/14 16:59:24;;;;;;;;;;;7.80;99.90;;;;;;12546064;28;21445;-39
2022/11/14 17:05:26;;;;;;;;;;;7.70;99.90;;;;;;12552924;28;20351;-39
2022/11/14 17:11:28;;;;;;;;;;;7.60;99.90;;;;;;12549434;28;20368;-39
2022/11/14 17:17:30;;;;;;;;;;;7.60;99.90;;;;;;12555170;28;19971;-39
2022/11/14 17:23:31;;;;;;;;;;;7.50;99.90;;;;;;12542306;28;19939;-39
2022/11/14 17:29:33;;;;;;;;;;;7.50;99.90;;;;;;12544868;28;19932;-39
2022/11/14 17:35:35;;;;;;;;;;;7.50;99.90;;;;;;12582697;28;19924;-39
2022/11/14 17:41:37;;;;;;;;;;;7.40;99.90;;;;;;12611566;28;19924;-39
2022/11/14 17:47:39;;;;;;;;;;;7.40;99.90;;;;;;12614556;28;19965;-39
2022/11/14 17:53:41;;;;;;;;;;;7.40;99.90;;;;;;12622767;28;19927;-39
2022/11/14 17:59:43;;;;;;;;;;;7.40;99.90;;;;;;12606290;28;20102;-39
2022/11/14 18:05:45;;;;;;;;;;;7.60;99.90;;;;;;12605778;28;19928;-39
2022/11/14 18:11:47;;;;;;;;;;;7.60;99.90;;;;;;12620150;28;19928;-39
2022/11/14 18:17:49;;;;;;;;;;;7.70;99.90;;;;;;12622531;28;19935;-39
2022/11/14 18:23:51;;;;;;;;;;;7.60;99.90;;;;;;12604864;28;20342;-39
2022/11/14 18:29:53;;;;;;;;;;;7.70;99.90;;;;;;12607198;28;19938;-39
2022/11/14 18:36:05;;;;;;;;;;;7.60;99.90;;;;;;12620230;28;19924;-39
2022/11/14 18:42:06;;;;;;;;;;;7.60;99.90;;;;;;12631686;28;19928;-39
2022/11/14 18:48:08;;;;;;;;;;;7.80;99.90;;;;;;12614212;28;20329;-39
2022/11/14 18:54:11;;;;;;;;;;;7.80;99.90;;;;;;12606272;28;19933;-39
2022/11/14 19:00:14;;;;;;;;;;;7.90;99.90;;;;;;12601063;28;19924;-39
2022/11/14 19:06:16;;;;;;;;;;;8.00;99.90;;;;;;12617453;28;19928;-39
2022/11/14 19:12:17;;;;;;;;;;;8.10;99.90;;;;;;12624185;28;19939;-39
2022/11/14 19:18:19;;;;;;;;;;;8.20;99.90;;;;;;12617136;28;19931;-39
2022/11/14 19:24:21;;;;;;;;;;;8.30;99.90;;;;;;12596833;28;19924;-39
2022/11/14 19:30:22;;;;;;;;;;;8.30;99.90;;;;;;12604718;28;19928;-38
2022/11/14 19:36:24;;;;;;;;;;;8.40;99.90;;;;;;12620237;28;19924;-38
2022/11/14 19:42:46;;;;;;;;;;;8.40;99.90;;;;;;12622504;28;20037;-38
2022/11/14 19:48:48;;;;;;;;;;;8.40;99.90;;;;;;12605680;28;20375;-37
2022/11/14 19:54:51;;;;;;;;;;;8.40;99.90;;;;;;12598243;28;20417;-37
2022/11/14 20:00:58;;;;;;;;;;;8.50;99.90;;;;;;12596997;28;19924;-38
2022/11/14 20:07:00;;;;;;;;;;;8.40;99.90;;;;;;12593896;28;20003;-37
2022/11/14 20:13:01;;;;;;;;;;;8.50;99.90;;;;;;12611081;28;19928;-38
2022/11/14 20:19:03;;;;;;;;;;;8.50;99.90;;;;;;12610836;28;19928;-37
2022/11/14 20:25:05;;;;;;;;;;;8.60;99.90;;;;;;12598862;28;19928;-38
2022/11/14 20:31:10;;;;;;;;;;;8.60;99.90;;;;;;12609451;28;20030;-38
2022/11/14 20:37:12;;;;;;;;;;;8.60;99.90;;;;;;12616615;28;20450;-37
2022/11/14 20:43:13;;;;;;;;;;;8.60;99.90;;;;;;12599624;28;19924;-37
2022/11/14 20:49:15;;;;;;;;;;;8.60;99.90;;;;;;12589177;28;19928;-38
2022/11/14 20:55:17;;;;;;;;;;;8.60;99.90;;;;;;12580685;28;19928;-38
2022/11/14 21:01:18;;;;;;;;;;;8.70;99.90;;;;;;12609232;28;19943;-37
2022/11/14 21:07:20;;;;;;;;;;;8.70;99.90;;;;;;12622511;28;20386;-37
2022/11/14 21:19:43;;;;;;;;;;;9.30;99.90;;;;;;12609981;28;20018;-37
2022/11/14 21:25:44;;;;;;;;;;;9.40;99.90;;;;;;12580111;28;19928;-37
2022/11/14 21:31:46;;;;;;;;;;;9.40;99.90;;;;;;12617956;28;19924;-38
2022/11/14 21:37:48;;;;;;;;;;;9.30;99.90;;;;;;12602776;28;19925;-38
2022/11/14 21:43:54;;;;;;;;;;;9.10;99.90;;;;;;12622363;28;20062;-38
2022/11/14 21:49:56;;;;;;;;;;;9.00;99.90;;;;;;12615473;28;20267;-38
2022/11/14 21:56:08;;;;;;;;;;;8.80;99.90;;;;;;12613945;28;19932;-38
2022/11/14 22:08:31;;;;;;;;;;;8.80;99.90;;;;;;12631765;28;19976;-38
2022/11/14 22:14:32;;;;;;;;;;;8.70;99.90;;;;;;12635963;28;19939;-37
2022/11/14 22:20:34;;;;;;;;;;;8.60;99.90;;;;;;12614960;28;19932;-37
2022/11/14 22:26:38;;;;;;;;;;;8.60;99.90;;;;;;12609128;28;20022;-38
2022/11/14 22:32:40;;;;;;;;;;;8.50;99.90;;;;;;12639653;28;19931;-37
2022/11/14 22:38:42;;;;;;;;;;;8.50;99.90;;;;;;12627061;28;19967;-37
2022/11/14 22:44:44;;;;;;;;;;;8.40;99.90;;;;;;12625229;28;19969;-38
2022/11/14 22:50:46;;;;;;;;;;;8.40;99.90;;;;;;12628419;28;19981;-38
2022/11/14 22:56:48;;;;;;;;;;;8.20;99.90;;;;;;12610361;28;19928;-38
2022/11/14 23:02:52;;;;;;;;;;;8.10;99.90;;;;;;12628883;28;19923;-37
2022/11/14 23:08:54;;;;;;;;;;;8.10;99.90;;;;;;12612877;28;19925;-37
2022/11/14 23:14:56;;;;;;;;;;;7.90;99.90;;;;;;12606556;28;19978;-38
2022/11/14 23:21:15;;;;;;;;;;;7.90;99.90;;;;;;12609174;28;20307;-37
2022/11/14 23:27:16;;;;;;;;;;;7.80;99.90;;;;;;12605259;28;19924;-37
2022/11/14 23:33:18;;;;;;;;;;;7.90;99.90;;;;;;12618615;28;20015;-37
2022/11/14 23:39:20;;;;;;;;;;;8.10;99.90;;;;;;12625618;28;19939;-38
2022/11/14 23:45:22;;;;;;;;;;;8.30;99.90;;;;;;12620115;28;19981;-37
2022/11/14 23:51:23;;;;;;;;;;;8.40;99.90;;;;;;12599061;28;19962;-38
2022/11/14 23:57:25;;;;;;;;;;;8.50;99.90;;;;;;12614487;28;20280;-38
